createdAt,value
2019-04-03T00:01:49.107Z,20.60
2019-04-03T00:04:18.917Z,20.00
2019-04-03T00:06:48.857Z,22.03
2019-04-03T00:09:18.632Z,19.00
2019-04-03T00:11:48.418Z,20.83
2019-04-03T00:14:18.250Z,21.13
2019-04-03T00:16:48.095Z,19.07
2019-04-03T00:19:18.168Z,21.87
2019-04-03T00:21:50.187Z,20.60
2019-04-03T00:24:22.174Z,20.20
2019-04-03T00:26:52.699Z,21.77
2019-04-03T00:29:22.640Z,21.60
2019-04-03T00:31:53.838Z,20.67
2019-04-03T00:34:23.981Z,18.67
2019-04-03T00:36:53.912Z,19.00
2019-04-03T00:39:24.350Z,20.90
2019-04-03T00:41:55.128Z,19.80
2019-04-03T00:44:25.027Z,20.27
2019-04-03T00:46:55.557Z,19.47
2019-04-03T00:49:26.492Z,17.90
2019-04-03T00:51:57.458Z,19.70
2019-04-03T00:54:30.599Z,20.50
2019-04-03T00:56:59.378Z,21.20
2019-04-03T00:59:29.076Z,20.40
2019-04-03T01:01:58.780Z,19.43
2019-04-03T01:04:29.077Z,19.97
2019-04-03T01:06:59.149Z,20.13
2019-04-03T01:09:29.935Z,20.13
2019-04-03T01:12:00.899Z,20.83
2019-04-03T01:14:31.515Z,18.37
2019-04-03T01:17:03.563Z,19.57
2019-04-03T01:19:36.121Z,19.73
2019-04-03T01:22:07.362Z,20.20
2019-04-03T01:24:38.801Z,19.73
2019-04-03T01:27:12.007Z,19.80
2019-04-03T01:29:42.922Z,19.30
2019-04-03T01:32:15.381Z,20.40
2019-04-03T01:34:47.009Z,20.53
2019-04-03T01:37:16.792Z,18.50
2019-04-03T01:39:49.045Z,20.03
2019-04-03T01:42:21.490Z,18.47
2019-04-03T01:44:50.323Z,18.73
2019-04-03T01:47:20.581Z,18.90
2019-04-03T01:49:50.473Z,19.47
2019-04-03T01:52:20.387Z,19.30
2019-04-03T01:54:50.210Z,19.80
2019-04-03T01:57:20.174Z,19.73
2019-04-03T01:59:50.224Z,21.00
2019-04-03T02:02:20.314Z,20.33
2019-04-03T02:04:50.251Z,18.93
2019-04-03T02:07:19.961Z,21.57
2019-04-03T02:09:49.836Z,21.03
2019-04-03T02:12:20.224Z,21.50
2019-04-03T02:14:51.724Z,22.37
2019-04-03T02:17:23.411Z,23.80
2019-04-03T02:19:55.998Z,22.50
2019-04-03T02:22:25.524Z,24.50
2019-04-03T02:24:55.167Z,23.00
2019-04-03T02:27:25.023Z,25.20
2019-04-03T02:29:55.047Z,22.77
2019-04-03T02:32:24.993Z,23.50
2019-04-03T02:34:54.817Z,23.60
2019-04-03T02:37:24.656Z,24.10
2019-04-03T02:39:59.036Z,24.00
2019-04-03T02:42:25.971Z,24.40
2019-04-03T02:44:55.772Z,25.57
2019-04-03T02:47:25.593Z,23.83
2019-04-03T02:49:55.755Z,24.83
2019-04-03T02:52:26.429Z,26.20
2019-04-03T02:54:56.223Z,26.50
2019-04-03T02:57:26.021Z,24.47
2019-04-03T02:59:58.774Z,25.80
2019-04-03T03:02:27.199Z,26.70
2019-04-03T03:04:57.259Z,25.67
2019-04-03T03:07:27.747Z,27.50
2019-04-03T03:09:57.624Z,26.37
2019-04-03T03:12:28.735Z,28.63
2019-04-03T03:14:59.410Z,28.03
2019-04-03T03:17:30.238Z,27.77
2019-04-03T03:20:07.029Z,27.77
2019-04-03T03:22:35.737Z,29.27
2019-04-03T03:25:07.416Z,28.97
2019-04-03T03:27:40.590Z,29.90
2019-04-03T03:30:30.552Z,30.63
2019-04-03T03:32:42.072Z,29.57
2019-04-03T03:35:16.787Z,34.07
2019-04-03T03:37:44.890Z,28.83
2019-04-03T03:40:16.543Z,30.77
2019-04-03T03:42:46.571Z,30.17
2019-04-03T03:45:20.606Z,31.73
2019-04-03T03:47:51.256Z,30.47
2019-04-03T03:50:25.762Z,29.07
2019-04-03T03:52:57.488Z,61.33
2019-04-03T03:55:30.208Z,279.63
2019-04-03T03:58:01.050Z,142.73
2019-04-03T04:00:32.038Z,123.53
2019-04-03T04:03:02.489Z,93.07
2019-04-03T04:05:32.602Z,81.13
2019-04-03T04:08:02.525Z,72.37
2019-04-03T04:10:36.319Z,69.27
2019-04-03T04:13:05.826Z,64.90
2019-04-03T04:15:35.786Z,62.47
2019-04-03T04:18:06.071Z,62.67
2019-04-03T04:20:37.773Z,58.00
2019-04-03T04:23:07.665Z,54.60
2019-04-03T04:25:37.496Z,54.90
2019-04-03T04:28:09.306Z,50.03
2019-04-03T04:30:38.831Z,50.00
2019-04-03T04:33:08.834Z,49.23
2019-04-03T04:35:38.765Z,46.50
2019-04-03T04:38:08.559Z,48.13
2019-04-03T04:40:38.286Z,44.60
2019-04-03T04:43:08.616Z,42.60
2019-04-03T04:45:38.813Z,43.73
2019-04-03T04:48:08.552Z,42.67
2019-04-03T04:50:38.379Z,40.20
2019-04-03T04:53:08.329Z,40.93
2019-04-03T04:55:38.043Z,38.23
2019-04-03T04:58:07.934Z,38.97
2019-04-03T05:00:37.851Z,37.57
2019-04-03T05:03:07.670Z,37.13
2019-04-03T05:05:37.444Z,36.50
2019-04-03T05:08:07.187Z,34.43
2019-04-03T05:10:37.363Z,34.53
2019-04-03T05:13:07.236Z,33.77
2019-04-03T05:15:37.319Z,34.37
2019-04-03T05:18:07.103Z,33.60
2019-04-03T05:20:36.975Z,31.70
2019-04-03T05:23:06.762Z,32.80
2019-04-03T05:25:36.503Z,32.07
2019-04-03T05:28:06.314Z,31.53
2019-04-03T05:30:37.778Z,30.53
2019-04-03T05:33:10.601Z,30.07
2019-04-03T05:35:39.143Z,31.90
2019-04-03T05:38:08.973Z,32.67
2019-04-03T05:40:38.683Z,32.10
2019-04-03T05:43:08.583Z,29.93
2019-04-03T05:45:40.925Z,30.70
2019-04-03T05:48:12.647Z,29.77
2019-04-03T05:50:41.366Z,31.20
2019-04-03T05:53:11.209Z,28.53
2019-04-03T05:55:41.747Z,29.83
2019-04-03T05:58:11.697Z,28.73
2019-04-03T06:00:42.118Z,28.40
2019-04-03T06:03:11.880Z,29.17
2019-04-03T06:05:43.598Z,28.23
2019-04-03T06:08:13.137Z,29.70
2019-04-03T06:10:43.023Z,28.17
2019-04-03T06:13:13.543Z,29.00
2019-04-03T06:15:43.454Z,27.40
2019-04-03T06:18:13.137Z,28.13
2019-04-03T06:20:43.969Z,28.50
2019-04-03T06:23:13.820Z,29.30
2019-04-03T06:25:43.744Z,27.17
2019-04-03T06:28:13.831Z,28.00
2019-04-03T06:30:43.782Z,28.50
2019-04-03T06:33:14.198Z,30.60
2019-04-03T06:35:45.335Z,29.57
2019-04-03T06:38:15.629Z,29.80
2019-04-03T06:40:45.496Z,30.00
2019-04-03T06:43:17.042Z,32.90
2019-04-03T06:45:46.794Z,32.97
2019-04-03T06:48:16.614Z,34.23
2019-04-03T06:50:46.458Z,30.90
2019-04-03T06:53:16.357Z,31.80
2019-04-03T06:55:46.080Z,30.70
2019-04-03T06:58:16.105Z,30.00
2019-04-03T07:00:47.353Z,29.80
2019-04-03T07:03:18.030Z,31.10
2019-04-03T07:05:47.786Z,31.80
2019-04-03T07:08:29.013Z,30.13
2019-04-03T07:10:55.183Z,30.53
2019-04-03T07:13:20.964Z,30.07
2019-04-03T07:15:51.102Z,29.60
2019-04-03T07:18:20.804Z,31.77
2019-04-03T07:20:51.884Z,29.80
2019-04-03T07:23:22.160Z,32.03
2019-04-03T07:25:52.238Z,32.60
2019-04-03T07:28:22.138Z,32.77
2019-04-03T07:30:53.814Z,34.00
2019-04-03T07:33:23.407Z,29.80
2019-04-03T07:35:53.228Z,33.00
2019-04-03T07:38:23.407Z,31.83
2019-04-03T07:40:53.425Z,31.80
2019-04-03T07:43:26.263Z,30.97
2019-04-03T07:45:54.805Z,34.83
2019-04-03T07:48:24.573Z,36.00
2019-04-03T07:50:54.374Z,32.60
2019-04-03T07:53:24.157Z,31.90
2019-04-03T07:55:55.347Z,33.50
2019-04-03T07:58:25.821Z,34.50
2019-04-03T08:00:55.817Z,36.10
2019-04-03T08:03:25.577Z,32.23
2019-04-03T08:05:56.302Z,34.70
2019-04-03T08:08:26.643Z,35.77
2019-04-03T08:10:56.506Z,37.37
2019-04-03T08:13:26.735Z,34.13
2019-04-03T08:15:56.721Z,35.60
2019-04-03T08:18:26.568Z,36.80
2019-04-03T08:20:57.665Z,34.97
2019-04-03T08:23:29.421Z,35.70
2019-04-03T08:25:59.363Z,33.50
2019-04-03T08:28:30.317Z,32.50
2019-04-03T08:31:00.726Z,34.93
2019-04-03T08:33:32.802Z,36.17
2019-04-03T08:36:02.197Z,30.47
2019-04-03T08:38:32.066Z,33.80
2019-04-03T08:41:03.319Z,33.33
2019-04-03T08:43:33.229Z,30.53
2019-04-03T08:46:02.993Z,35.30
2019-04-03T08:48:32.860Z,30.37
2019-04-03T08:51:03.810Z,32.90
2019-04-03T08:53:33.767Z,34.97
2019-04-03T08:56:03.603Z,33.03
2019-04-03T08:58:33.688Z,32.10
2019-04-03T09:01:04.793Z,32.50
2019-04-03T09:03:35.296Z,34.40
2019-04-03T09:06:05.433Z,33.23
2019-04-03T09:08:35.333Z,34.30
2019-04-03T09:11:05.529Z,31.60
2019-04-03T09:13:35.691Z,35.13
2019-04-03T09:16:05.854Z,36.77
2019-04-03T09:18:37.456Z,35.30
2019-04-03T09:21:08.469Z,33.83
2019-04-03T09:23:38.885Z,37.90
2019-04-03T09:26:08.900Z,37.10
2019-04-03T09:28:41.240Z,36.63
2019-04-03T09:31:10.293Z,33.90
2019-04-03T09:33:40.143Z,34.30
2019-04-03T09:36:10.275Z,35.30
2019-04-03T09:38:41.479Z,36.43
2019-04-03T09:41:11.994Z,34.30
2019-04-03T09:43:42.105Z,34.77
2019-04-03T09:46:12.280Z,33.43
2019-04-03T09:48:42.376Z,35.07
2019-04-03T09:51:12.218Z,32.90
2019-04-03T09:53:42.154Z,37.37
2019-04-03T09:56:12.086Z,35.10
2019-04-03T09:58:41.849Z,36.27
2019-04-03T10:01:13.798Z,36.50
2019-04-03T10:03:43.169Z,33.73
2019-04-03T10:06:12.996Z,33.10
2019-04-03T10:08:42.776Z,35.80
2019-04-03T10:11:14.934Z,34.77
2019-04-03T10:13:44.046Z,34.17
2019-04-03T10:16:16.122Z,34.33
2019-04-03T10:18:45.274Z,36.67
2019-04-03T10:21:15.188Z,34.60
2019-04-03T10:23:45.040Z,35.07
2019-04-03T10:26:15.277Z,33.90
2019-04-03T10:28:47.376Z,35.80
2019-04-03T10:31:16.612Z,34.40
2019-04-03T10:33:47.716Z,32.83
2019-04-03T10:36:18.615Z,38.40
2019-04-03T10:38:49.119Z,37.03
2019-04-03T10:41:19.555Z,34.53
2019-04-03T10:43:49.454Z,35.93
2019-04-03T10:46:19.623Z,34.23
2019-04-03T10:48:50.069Z,37.10
2019-04-03T10:51:19.850Z,35.67
2019-04-03T10:53:51.516Z,36.00
2019-04-03T10:56:21.058Z,36.00
2019-04-03T10:58:51.149Z,35.90
2019-04-03T11:01:21.271Z,34.33
2019-04-03T11:03:51.195Z,35.70
2019-04-03T11:06:21.221Z,36.03
2019-04-03T11:08:51.228Z,37.67
2019-04-03T11:11:21.277Z,32.70
2019-04-03T11:13:51.317Z,32.80
2019-04-03T11:16:21.412Z,37.30
2019-04-03T11:18:58.443Z,32.60
2019-04-03T11:21:23.149Z,31.97
2019-04-03T11:23:53.135Z,33.10
2019-04-03T11:26:24.860Z,33.00
2019-04-03T11:28:54.330Z,34.50
2019-04-03T11:31:28.035Z,38.23
2019-04-03T11:33:55.677Z,33.70
2019-04-03T11:36:29.446Z,31.57
2019-04-03T11:39:08.917Z,33.30
2019-04-03T11:41:28.729Z,32.07
2019-04-03T11:43:58.571Z,33.10
2019-04-03T11:46:28.417Z,33.50
2019-04-03T11:48:58.227Z,31.47
2019-04-03T11:51:29.546Z,33.20
2019-04-03T11:53:59.715Z,32.80
2019-04-03T11:56:29.562Z,31.03
2019-04-03T11:58:59.681Z,31.30
2019-04-03T12:01:29.770Z,31.53
2019-04-03T12:03:59.882Z,31.33
2019-04-03T12:06:29.794Z,29.50
2019-04-03T12:09:01.015Z,32.00
2019-04-03T12:11:31.736Z,30.40
2019-04-03T12:14:01.660Z,31.10
2019-04-03T12:16:31.596Z,28.83
2019-04-03T12:19:02.887Z,31.03
2019-04-03T12:21:33.337Z,31.00
2019-04-03T12:24:03.260Z,31.30
2019-04-03T12:26:33.176Z,31.43
2019-04-03T12:29:03.280Z,29.60
2019-04-03T12:31:33.491Z,28.40
2019-04-03T12:34:05.246Z,29.83
2019-04-03T12:36:34.744Z,28.57
2019-04-03T12:39:07.763Z,29.33
2019-04-03T12:41:38.076Z,29.50
2019-04-03T12:44:08.043Z,28.57
2019-04-03T12:46:41.653Z,28.30
2019-04-03T12:49:11.858Z,28.10
2019-04-03T12:51:41.639Z,26.63
2019-04-03T12:54:13.394Z,27.10
2019-04-03T12:56:42.946Z,30.20
2019-04-03T12:59:12.927Z,27.27
2019-04-03T13:01:43.103Z,27.43
2019-04-03T13:04:13.214Z,27.73
2019-04-03T13:06:43.497Z,29.53
2019-04-03T13:09:14.106Z,29.27
2019-04-03T13:11:44.174Z,30.77
2019-04-03T13:15:20.945Z,31.67
2019-04-03T13:16:47.645Z,28.83
2019-04-03T13:19:17.595Z,27.90
2019-04-03T13:21:47.492Z,28.50
2019-04-03T13:24:17.686Z,26.70
2019-04-03T13:26:48.070Z,25.37
2019-04-03T13:29:20.663Z,25.93
2019-04-03T13:31:49.550Z,23.83
2019-04-03T13:34:19.814Z,25.00
2019-04-03T13:36:51.376Z,23.87
2019-04-03T13:39:21.449Z,24.83
2019-04-03T13:41:51.226Z,26.03
2019-04-03T13:44:21.138Z,22.47
2019-04-03T13:46:52.750Z,23.00
2019-04-03T13:49:22.511Z,22.07
2019-04-03T13:51:52.764Z,22.57
2019-04-03T13:54:25.288Z,21.90
2019-04-03T13:56:54.432Z,20.80
2019-04-03T13:59:25.768Z,21.73
2019-04-03T14:01:55.717Z,19.47
2019-04-03T14:04:25.735Z,20.70
2019-04-03T14:06:55.732Z,19.47
2019-04-03T14:09:25.579Z,19.53
2019-04-03T14:12:00.422Z,18.40
2019-04-03T14:14:29.551Z,21.40
2019-04-03T14:16:59.419Z,18.53
2019-04-03T14:19:41.809Z,19.23
2019-04-03T14:22:00.862Z,17.90
2019-04-03T14:24:41.467Z,17.13
2019-04-03T14:27:02.787Z,17.60
2019-04-03T14:29:32.634Z,18.30
2019-04-03T14:32:02.477Z,16.93
2019-04-03T14:34:32.386Z,18.07
2019-04-03T14:37:02.335Z,16.07
2019-04-03T14:39:32.227Z,16.13
2019-04-03T14:42:02.007Z,15.53
2019-04-03T14:44:31.886Z,15.87
2019-04-03T14:47:01.629Z,14.83
2019-04-03T14:49:32.844Z,15.53
2019-04-03T14:52:03.003Z,14.07
2019-04-03T14:54:33.036Z,15.73
2019-04-03T14:57:12.693Z,16.60
2019-04-03T14:59:35.337Z,16.40
2019-04-03T15:02:05.752Z,15.13
2019-04-03T15:04:37.132Z,17.03
2019-04-03T15:07:09.873Z,15.50
2019-04-03T15:09:39.066Z,13.97
2019-04-03T15:12:11.626Z,14.13
2019-04-03T15:14:40.588Z,13.03
2019-04-03T15:17:10.409Z,13.27
2019-04-03T15:19:40.414Z,11.43
2019-04-03T15:22:10.154Z,11.23
2019-04-03T15:24:42.255Z,11.10
2019-04-03T15:27:11.443Z,10.90
2019-04-03T15:29:41.258Z,9.67
2019-04-03T15:32:11.166Z,10.53
2019-04-03T15:34:41.457Z,9.80
2019-04-03T15:37:13.955Z,10.23
2019-04-03T15:39:42.975Z,12.00
2019-04-03T15:42:13.171Z,12.00
2019-04-03T15:44:43.346Z,11.80
2019-04-03T15:47:13.393Z,10.87
2019-04-03T15:49:45.167Z,13.20
2019-04-03T15:52:15.178Z,11.90
2019-04-03T15:54:45.169Z,11.27
2019-04-03T15:57:14.972Z,12.27
2019-04-03T15:59:44.808Z,13.53
2019-04-03T16:02:14.720Z,13.60
2019-04-03T16:04:44.642Z,13.40
2019-04-03T16:07:14.927Z,13.63
2019-04-03T16:09:45.148Z,15.37
2019-04-03T16:12:15.066Z,15.73
2019-04-03T16:14:45.252Z,14.47
2019-04-03T16:17:15.497Z,14.83
2019-04-03T16:19:46.077Z,15.10
2019-04-03T16:22:16.268Z,14.20
2019-04-03T16:24:46.624Z,14.73
2019-04-03T16:27:16.498Z,13.50
2019-04-03T16:29:46.343Z,14.80
2019-04-03T16:32:16.547Z,15.27
2019-04-03T16:34:46.745Z,15.00
2019-04-03T16:37:16.663Z,15.00
2019-04-03T16:39:46.971Z,15.07
2019-04-03T16:42:19.347Z,15.13
2019-04-03T16:44:49.365Z,16.33
2019-04-03T16:47:19.283Z,14.33
2019-04-03T16:49:49.634Z,14.90
2019-04-03T16:52:19.970Z,15.37
2019-04-03T16:54:50.022Z,15.83
2019-04-03T16:57:22.561Z,15.40
2019-04-03T16:59:51.797Z,17.47
2019-04-03T17:02:25.225Z,19.40
2019-04-03T17:04:53.410Z,23.70
2019-04-03T17:07:23.298Z,25.07
2019-04-03T17:09:53.408Z,26.53
2019-04-03T17:12:23.435Z,23.27
2019-04-03T17:14:54.977Z,24.10
2019-04-03T17:17:25.004Z,21.33
2019-04-03T17:19:56.385Z,22.83
2019-04-03T17:22:26.175Z,21.57
2019-04-03T17:24:56.520Z,22.30
2019-04-03T17:27:30.687Z,21.47
2019-04-03T17:30:01.130Z,20.93
2019-04-03T17:32:31.741Z,22.50
2019-04-03T17:35:02.005Z,20.50
2019-04-03T17:37:32.002Z,21.97
2019-04-03T17:40:04.104Z,22.83
2019-04-03T17:42:34.683Z,23.87
2019-04-03T17:45:07.304Z,23.27
2019-04-03T17:47:37.316Z,22.37
2019-04-03T17:50:10.277Z,24.00
2019-04-03T17:52:40.187Z,23.30
2019-04-03T17:55:11.560Z,23.57
2019-04-03T17:57:44.590Z,23.70
2019-04-03T18:00:20.942Z,26.80
2019-04-03T18:02:50.718Z,27.77
2019-04-03T18:05:20.695Z,24.73
2019-04-03T18:07:50.523Z,27.07
2019-04-03T18:10:20.632Z,26.10
2019-04-03T18:12:52.366Z,28.33
2019-04-03T18:15:21.975Z,26.40
2019-04-03T18:17:51.965Z,27.00
2019-04-03T18:20:22.005Z,27.87
2019-04-03T18:22:51.986Z,26.60
2019-04-03T18:25:22.723Z,25.13
2019-04-03T18:27:52.714Z,27.33
2019-04-03T18:30:23.374Z,28.50
2019-04-03T18:32:53.343Z,26.93
2019-04-03T18:35:25.553Z,28.70
2019-04-03T18:37:54.926Z,28.43
2019-04-03T18:40:24.702Z,27.03
2019-04-03T18:42:55.053Z,27.33
2019-04-03T18:45:25.900Z,29.00
2019-04-03T18:47:57.075Z,30.57
2019-04-03T18:50:27.343Z,28.83
2019-04-03T18:52:57.408Z,28.77
2019-04-03T18:55:27.584Z,28.83
2019-04-03T18:57:57.481Z,28.93
2019-04-03T19:00:30.432Z,28.73
2019-04-03T19:02:59.081Z,31.17
2019-04-03T19:05:29.132Z,28.80
2019-04-03T19:07:59.086Z,29.60
2019-04-03T19:10:32.238Z,31.70
2019-04-03T19:13:02.071Z,32.10
2019-04-03T19:15:33.658Z,30.37
2019-04-03T19:18:17.847Z,30.30
2019-04-03T19:20:36.219Z,31.63
2019-04-03T19:23:07.072Z,33.00
2019-04-03T19:25:37.810Z,29.67
2019-04-03T19:28:07.850Z,31.83
2019-04-03T19:30:38.013Z,32.07
2019-04-03T19:33:08.541Z,32.53
2019-04-03T19:35:38.542Z,30.50
2019-04-03T19:38:08.803Z,33.00
2019-04-03T19:40:40.510Z,32.60
2019-04-03T19:43:10.617Z,32.80
2019-04-03T19:45:40.696Z,31.93
2019-04-03T19:48:10.549Z,33.70
2019-04-03T19:50:40.569Z,32.47
2019-04-03T19:53:12.939Z,34.97
2019-04-03T19:55:42.031Z,33.20
2019-04-03T19:58:11.841Z,32.10
2019-04-03T20:00:41.922Z,33.10
2019-04-03T20:03:13.802Z,32.50
2019-04-03T20:05:44.041Z,33.97
2019-04-03T20:08:14.213Z,34.60
2019-04-03T20:10:44.077Z,33.17
2019-04-03T20:13:13.963Z,34.70
2019-04-03T20:15:43.963Z,32.37
2019-04-03T20:18:13.960Z,33.30
2019-04-03T20:20:43.973Z,32.70
2019-04-03T20:23:13.830Z,32.07
2019-04-03T20:25:44.031Z,32.47
2019-04-03T20:28:15.569Z,33.60
2019-04-03T20:30:46.159Z,31.30
2019-04-03T20:33:16.067Z,32.80
2019-04-03T20:35:45.921Z,31.40
2019-04-03T20:38:18.779Z,32.90
2019-04-03T20:40:48.592Z,32.70
2019-04-03T20:43:18.461Z,32.10
2019-04-03T20:45:49.809Z,31.00
2019-04-03T20:48:19.697Z,32.47
2019-04-03T20:50:49.642Z,33.03
2019-04-03T20:53:19.382Z,31.63
2019-04-03T20:55:49.174Z,31.87
2019-04-03T20:58:19.048Z,33.30
2019-04-03T21:01:00.090Z,31.23
2019-04-03T21:03:21.263Z,30.53
2019-04-03T21:05:51.201Z,32.97
2019-04-03T21:08:21.101Z,29.37
2019-04-03T21:10:50.877Z,32.30
2019-04-03T21:13:20.795Z,31.47
2019-04-03T21:15:52.282Z,31.83
2019-04-03T21:18:22.407Z,32.23
2019-04-03T21:20:54.426Z,32.27
2019-04-03T21:23:23.777Z,33.37
2019-04-03T21:25:53.639Z,33.93
2019-04-03T21:28:23.472Z,32.67
2019-04-03T21:30:54.969Z,32.50
2019-04-03T21:33:24.758Z,30.33
2019-04-03T21:35:55.086Z,33.60
2019-04-03T21:38:25.076Z,32.87
2019-04-03T21:40:55.818Z,34.27
2019-04-03T21:43:27.224Z,31.87
2019-04-03T21:45:57.585Z,32.93
2019-04-03T21:48:27.433Z,33.83
2019-04-03T21:50:57.288Z,35.03
2019-04-03T21:53:27.060Z,33.00
2019-04-03T21:55:56.906Z,31.00
2019-04-03T21:58:26.790Z,34.83
2019-04-03T22:01:02.529Z,31.57
2019-04-03T22:03:32.390Z,32.23
2019-04-03T22:06:02.362Z,31.80
2019-04-03T22:08:32.306Z,33.37
2019-04-03T22:11:04.600Z,30.70
2019-04-03T22:13:33.737Z,31.80
2019-04-03T22:16:03.643Z,32.40
2019-04-03T22:18:33.493Z,31.87
2019-04-03T22:21:03.386Z,34.43
2019-04-03T22:23:35.554Z,33.50
2019-04-03T22:26:05.231Z,32.70
2019-04-03T22:28:35.053Z,32.90
2019-04-03T22:31:04.982Z,31.63
2019-04-03T22:33:34.847Z,33.83
2019-04-03T22:36:04.866Z,34.47
2019-04-03T22:38:36.954Z,35.43
2019-04-03T22:41:06.178Z,33.30
2019-04-03T22:43:36.022Z,35.30
2019-04-03T22:46:05.849Z,36.53
2019-04-03T22:48:35.617Z,35.07
2019-04-03T22:51:06.925Z,34.17
2019-04-03T22:53:36.811Z,33.67
2019-04-03T22:56:06.626Z,34.90
2019-04-03T22:58:36.429Z,36.13
2019-04-03T23:01:06.715Z,33.60
2019-04-03T23:03:36.508Z,36.80
2019-04-03T23:06:06.264Z,35.80
2019-04-03T23:08:36.070Z,35.20
2019-04-03T23:11:05.833Z,34.67
2019-04-03T23:13:36.221Z,38.30
2019-04-03T23:16:06.349Z,38.53
2019-04-03T23:18:36.142Z,37.80
2019-04-03T23:21:05.954Z,38.73
2019-04-03T23:23:35.719Z,37.53
2019-04-03T23:26:05.601Z,37.87
2019-04-03T23:28:35.451Z,37.47
2019-04-03T23:31:05.383Z,37.10
2019-04-03T23:33:35.222Z,39.67
2019-04-03T23:36:05.271Z,37.83
2019-04-03T23:38:35.045Z,40.07
2019-04-03T23:41:06.097Z,37.30
2019-04-03T23:43:39.248Z,39.47
2019-04-03T23:46:08.070Z,40.13
2019-04-03T23:48:37.924Z,39.57
2019-04-03T23:51:07.707Z,41.80
2019-04-03T23:53:37.603Z,41.50
2019-04-03T23:56:07.917Z,41.30
2019-04-03T23:58:37.816Z,38.80
